createdAt,value
2022-12-14T00:01:55.846Z,14.95
2022-12-14T00:04:23.904Z,17.38
2022-12-14T00:06:51.746Z,20.48
2022-12-14T00:09:19.617Z,14.52
2022-12-14T00:11:47.688Z,14.38
2022-12-14T00:14:15.763Z,12.52
2022-12-14T00:16:43.828Z,14.82
2022-12-14T00:19:12.315Z,13.52
2022-12-14T00:21:40.211Z,16.35
2022-12-14T00:24:08.219Z,15.20
2022-12-14T00:26:36.204Z,14.77
2022-12-14T00:29:04.179Z,16.10
2022-12-14T00:31:32.701Z,14.82
2022-12-14T00:34:01.539Z,14.32
2022-12-14T00:36:31.882Z,16.95
2022-12-14T00:39:00.262Z,13.90
2022-12-14T00:41:28.278Z,13.25
2022-12-14T00:43:56.323Z,14.73
2022-12-14T00:46:24.410Z,13.90
2022-12-14T00:48:52.578Z,16.17
2022-12-14T00:51:20.528Z,14.32
2022-12-14T00:53:48.447Z,14.50
2022-12-14T00:56:16.603Z,16.63
2022-12-14T00:58:44.407Z,12.45
2022-12-14T01:01:13.923Z,14.45
2022-12-14T01:03:42.585Z,17.27
2022-12-14T01:06:19.871Z,15.65
2022-12-14T01:08:48.858Z,14.70
2022-12-14T01:11:16.887Z,14.45
2022-12-14T01:13:44.805Z,14.15
2022-12-14T01:16:18.083Z,13.07
2022-12-14T01:18:46.197Z,12.13
2022-12-14T01:21:17.224Z,13.57
2022-12-14T01:23:46.915Z,15.02
2022-12-14T01:26:16.763Z,13.15
2022-12-14T01:28:46.183Z,15.48
2022-12-14T01:31:17.841Z,16.60
2022-12-14T01:33:46.304Z,15.48
2022-12-14T01:36:17.361Z,13.27
2022-12-14T01:38:46.329Z,16.13
2022-12-14T01:41:28.800Z,14.18
2022-12-14T01:44:16.668Z,12.50
2022-12-14T01:49:56.350Z,11.45
2022-12-14T01:52:40.282Z,14.13
2022-12-14T01:55:16.506Z,13.88
2022-12-14T01:57:47.279Z,12.20
2022-12-14T02:00:17.082Z,13.35
2022-12-14T02:02:51.617Z,13.88
2022-12-14T02:05:22.197Z,15.20
2022-12-14T02:07:53.628Z,11.48
2022-12-14T02:10:24.626Z,13.27
2022-12-14T02:13:04.503Z,12.85
2022-12-14T02:25:07.172Z,13.50
2022-12-14T02:28:01.173Z,12.45
2022-12-14T02:33:18.079Z,11.13
2022-12-14T02:35:57.564Z,11.07
2022-12-14T02:38:43.293Z,13.60
2022-12-14T02:41:24.260Z,13.25
2022-12-14T02:44:14.869Z,13.10
2022-12-14T02:46:55.391Z,14.38
2022-12-14T02:49:53.951Z,12.85
2022-12-14T02:52:51.817Z,11.60
2022-12-14T02:55:53.348Z,15.65
2022-12-14T03:00:47.117Z,8.32
2022-12-14T03:05:42.979Z,12.07
2022-12-14T03:08:14.406Z,9.60
2022-12-14T03:10:58.003Z,8.30
2022-12-14T03:13:33.131Z,12.85
2022-12-14T03:16:20.197Z,10.80
2022-12-14T03:19:03.711Z,9.18
2022-12-14T03:21:37.079Z,10.85
2022-12-14T03:24:10.921Z,9.05
2022-12-14T03:26:49.409Z,10.77
2022-12-14T03:29:28.939Z,10.60
2022-12-14T03:32:01.817Z,10.65
2022-12-14T03:34:40.947Z,9.68
2022-12-14T03:37:12.092Z,9.25
2022-12-14T03:39:42.653Z,10.88
2022-12-14T03:42:10.510Z,9.73
2022-12-14T03:45:02.841Z,9.55
2022-12-14T03:47:39.344Z,10.27
2022-12-14T03:50:16.233Z,9.73
2022-12-14T03:52:52.439Z,10.90
2022-12-14T03:55:43.315Z,8.88
2022-12-14T03:58:16.936Z,9.52
2022-12-14T04:00:51.027Z,8.20
2022-12-14T04:03:43.244Z,9.45
2022-12-14T04:06:29.789Z,12.02
2022-12-14T04:09:10.844Z,7.65
2022-12-14T04:12:05.587Z,8.70
2022-12-14T04:15:03.039Z,8.77
2022-12-14T04:17:54.034Z,10.88
2022-12-14T04:20:31.221Z,8.32
2022-12-14T04:23:07.644Z,10.20
2022-12-14T04:26:00.136Z,11.05
2022-12-14T04:29:12.745Z,8.18
2022-12-14T04:31:46.225Z,6.68
2022-12-14T04:34:21.211Z,8.88
2022-12-14T04:37:02.385Z,12.85
2022-12-14T04:39:44.777Z,14.55
2022-12-14T04:42:15.661Z,10.90
2022-12-14T04:44:49.651Z,10.98
2022-12-14T04:47:19.409Z,8.45
2022-12-14T04:49:50.060Z,8.00
2022-12-14T04:52:21.825Z,8.68
2022-12-14T04:55:12.337Z,8.73
2022-12-14T04:57:53.441Z,9.77
2022-12-14T05:00:21.493Z,8.70
2022-12-14T05:03:04.810Z,8.02
2022-12-14T05:06:00.131Z,7.88
2022-12-14T05:08:37.595Z,8.23
2022-12-14T05:14:28.072Z,7.50
2022-12-14T05:16:56.984Z,11.88
2022-12-14T05:19:26.821Z,10.07
2022-12-14T05:21:55.664Z,15.68
2022-12-14T05:24:23.476Z,13.13
2022-12-14T05:26:51.431Z,10.55
2022-12-14T05:29:19.419Z,14.98
2022-12-14T05:31:49.431Z,13.00
2022-12-14T05:34:18.213Z,15.10
2022-12-14T05:36:46.339Z,12.18
2022-12-14T05:39:15.490Z,9.05
2022-12-14T05:41:44.248Z,9.80
2022-12-14T05:44:12.165Z,11.15
2022-12-14T05:46:40.384Z,11.05
2022-12-14T05:49:08.741Z,10.07
2022-12-14T05:51:36.692Z,10.55
2022-12-14T05:54:05.655Z,9.30
2022-12-14T05:56:33.723Z,9.23
2022-12-14T05:59:02.851Z,11.00
2022-12-14T06:01:30.840Z,10.18
2022-12-14T06:03:58.883Z,10.63
2022-12-14T06:06:27.020Z,12.07
2022-12-14T06:08:54.881Z,9.77
2022-12-14T06:11:23.629Z,12.13
2022-12-14T06:13:52.068Z,9.52
2022-12-14T06:16:25.693Z,10.55
2022-12-14T06:18:58.496Z,12.50
2022-12-14T06:21:28.920Z,11.75
2022-12-14T06:23:57.435Z,14.48
2022-12-14T06:26:26.692Z,15.18
2022-12-14T06:28:55.863Z,13.10
2022-12-14T06:31:26.136Z,13.38
2022-12-14T06:33:55.034Z,13.85
2022-12-14T06:36:25.821Z,22.60
2022-12-14T06:38:56.367Z,22.80
2022-12-14T06:41:25.059Z,13.32
2022-12-14T06:43:53.993Z,11.70
2022-12-14T06:46:23.416Z,15.13
2022-12-14T06:48:53.524Z,17.02
2022-12-14T06:51:23.395Z,16.92
2022-12-14T06:53:53.064Z,12.45
2022-12-14T06:56:23.159Z,15.25
2022-12-14T06:58:51.252Z,16.15
2022-12-14T07:01:21.415Z,20.45
2022-12-14T07:03:55.189Z,22.60
2022-12-14T07:06:24.401Z,25.08
2022-12-14T07:08:57.387Z,34.95
2022-12-14T07:11:27.029Z,19.38
2022-12-14T07:13:55.659Z,17.60
2022-12-14T07:16:29.345Z,18.65
2022-12-14T07:18:58.156Z,18.17
2022-12-14T07:21:26.872Z,22.13
2022-12-14T07:23:54.844Z,15.68
2022-12-14T07:26:25.927Z,14.85
2022-12-14T07:28:54.838Z,14.85
2022-12-14T07:31:38.221Z,24.77
2022-12-14T07:34:06.412Z,15.13
2022-12-14T07:36:34.581Z,18.50
2022-12-14T07:39:02.493Z,17.60
2022-12-14T07:41:32.011Z,20.90
2022-12-14T07:44:03.381Z,17.73
2022-12-14T07:46:34.998Z,15.18
2022-12-14T07:49:04.237Z,16.88
2022-12-14T07:54:04.269Z,13.02
2022-12-14T07:56:35.753Z,19.33
2022-12-14T07:59:05.905Z,21.10
2022-12-14T08:01:35.904Z,19.05
2022-12-14T08:04:07.947Z,34.78
2022-12-14T08:06:37.014Z,18.85
2022-12-14T08:09:06.747Z,15.65
2022-12-14T08:11:35.139Z,19.00
2022-12-14T08:28:57.353Z,21.00
2022-12-14T08:31:28.132Z,18.65
2022-12-14T08:33:58.083Z,15.93
2022-12-14T08:36:33.041Z,21.90
2022-12-14T08:39:03.640Z,19.30
2022-12-14T08:41:32.210Z,39.60
2022-12-14T08:44:01.649Z,20.88
2022-12-14T08:46:31.662Z,15.50
2022-12-14T08:49:00.298Z,25.00
2022-12-14T08:51:28.902Z,15.07
2022-12-14T08:53:58.468Z,13.40
2022-12-14T08:56:28.250Z,13.55
2022-12-14T09:01:55.941Z,15.23
2022-12-14T09:04:24.368Z,21.23
2022-12-14T09:06:52.394Z,21.35
2022-12-14T09:09:20.248Z,14.93
2022-12-14T09:11:48.380Z,19.02
2022-12-14T09:14:16.232Z,16.55
2022-12-14T09:16:44.266Z,27.27
2022-12-14T09:19:12.683Z,27.30
2022-12-14T09:21:40.777Z,24.83
2022-12-14T09:24:09.544Z,16.83
2022-12-14T09:26:37.585Z,15.15
2022-12-14T09:29:05.672Z,21.90
2022-12-14T09:31:33.987Z,21.73
2022-12-14T09:34:02.012Z,17.42
2022-12-14T09:36:30.031Z,17.27
2022-12-14T09:38:59.662Z,25.98
2022-12-14T09:41:36.503Z,19.02
2022-12-14T09:44:29.494Z,14.32
2022-12-14T09:47:18.408Z,10.88
2022-12-14T09:49:49.196Z,20.17
2022-12-14T09:52:21.532Z,8.20
2022-12-14T09:54:50.567Z,17.67
2022-12-14T09:57:30.765Z,18.48
2022-12-14T09:59:58.780Z,13.73
2022-12-14T10:02:36.125Z,20.73
2022-12-14T10:05:42.562Z,9.43
2022-12-14T10:08:31.035Z,17.60
2022-12-14T10:11:23.214Z,10.10
2022-12-14T10:14:00.131Z,10.55
2022-12-14T10:16:51.766Z,12.38
2022-12-14T10:19:35.639Z,11.27
2022-12-14T10:22:12.365Z,13.43
2022-12-14T10:25:05.841Z,10.27
2022-12-14T10:27:54.116Z,13.48
2022-12-14T10:30:23.485Z,12.10
2022-12-14T10:33:06.275Z,10.52
2022-12-14T10:36:00.219Z,10.57
2022-12-14T10:38:39.390Z,8.00
2022-12-14T10:41:49.455Z,8.80
2022-12-14T10:44:56.090Z,10.10
2022-12-14T10:47:42.168Z,8.68
2022-12-14T10:50:19.008Z,8.93
2022-12-14T10:52:53.842Z,10.15
2022-12-14T10:55:30.067Z,10.20
2022-12-14T10:57:58.070Z,8.80
2022-12-14T11:00:26.155Z,7.43
2022-12-14T11:02:57.582Z,10.10
2022-12-14T11:06:11.146Z,10.27
2022-12-14T11:08:48.707Z,9.38
2022-12-14T11:11:21.291Z,7.05
2022-12-14T11:13:56.720Z,10.27
2022-12-14T11:16:39.024Z,8.15
2022-12-14T11:19:24.967Z,8.40
2022-12-14T11:22:20.142Z,8.65
2022-12-14T11:24:50.163Z,11.63
2022-12-14T11:27:21.405Z,11.77
2022-12-14T11:29:51.346Z,10.05
2022-12-14T11:32:25.067Z,10.40
2022-12-14T11:35:16.723Z,13.32
2022-12-14T11:37:45.873Z,7.40
2022-12-14T11:40:39.874Z,10.02
2022-12-14T11:45:51.903Z,10.73
2022-12-14T11:48:22.550Z,8.77
2022-12-14T11:50:56.704Z,11.15
2022-12-14T11:53:24.619Z,11.82
2022-12-14T11:55:58.659Z,8.00
2022-12-14T11:58:32.671Z,10.20
2022-12-14T12:01:12.132Z,11.45
2022-12-14T12:03:48.083Z,11.32
2022-12-14T12:06:24.913Z,9.63
2022-12-14T12:09:00.992Z,9.40
2022-12-14T12:11:31.709Z,9.93
2022-12-14T12:14:28.016Z,10.18
2022-12-14T12:16:56.394Z,10.02
2022-12-14T12:19:35.127Z,9.23
2022-12-14T12:22:05.709Z,9.07
2022-12-14T12:25:08.291Z,10.02
2022-12-14T12:27:34.036Z,9.90
2022-12-14T12:30:19.951Z,11.00
2022-12-14T12:32:52.997Z,9.48
2022-12-14T12:35:30.557Z,7.30
2022-12-14T12:38:33.891Z,10.80
2022-12-14T12:41:10.803Z,11.55
2022-12-14T12:43:58.683Z,10.63
2022-12-14T12:47:14.899Z,11.40
2022-12-14T12:49:34.281Z,11.73
2022-12-14T12:52:06.801Z,13.85
2022-12-14T12:54:40.489Z,11.20
2022-12-14T12:57:12.655Z,13.07
2022-12-14T12:59:47.260Z,20.73
2022-12-14T13:02:26.038Z,15.38
2022-12-14T13:04:55.374Z,16.40
2022-12-14T13:10:16.088Z,11.90
2022-12-14T13:12:51.347Z,12.15
2022-12-14T13:15:49.638Z,11.75
2022-12-14T13:18:59.504Z,11.27
2022-12-14T13:21:35.245Z,14.75
2022-12-14T13:24:05.084Z,11.25
2022-12-14T13:26:59.273Z,8.82
2022-12-14T13:30:01.182Z,11.85
2022-12-14T13:32:54.516Z,11.95
2022-12-14T13:35:40.843Z,26.13
2022-12-14T13:38:32.845Z,12.43
2022-12-14T13:41:15.263Z,8.98
2022-12-14T13:46:27.000Z,10.05
2022-12-14T13:49:01.024Z,14.73
2022-12-14T13:51:46.833Z,14.70
2022-12-14T13:54:21.027Z,12.80
2022-12-14T13:56:49.393Z,18.00
2022-12-14T13:59:29.716Z,24.25
2022-12-14T14:02:01.398Z,10.95
2022-12-14T14:04:31.405Z,14.00
2022-12-14T14:07:23.956Z,11.80
2022-12-14T14:10:04.997Z,9.02
2022-12-14T14:12:41.870Z,16.73
2022-12-14T14:15:24.285Z,13.23
2022-12-14T14:17:56.584Z,10.18
2022-12-14T14:29:25.860Z,11.40
2022-12-14T14:31:55.451Z,14.80
2022-12-14T14:34:38.740Z,11.63
2022-12-14T14:37:21.780Z,11.00
2022-12-14T14:40:21.973Z,11.05
2022-12-14T14:43:16.877Z,12.55
2022-12-14T14:45:55.403Z,10.48
2022-12-14T14:48:43.279Z,9.75
2022-12-14T14:51:11.235Z,10.10
2022-12-14T14:53:40.494Z,9.15
2022-12-14T14:59:17.287Z,9.73
2022-12-14T15:01:58.528Z,8.77
2022-12-14T15:04:34.447Z,11.60
2022-12-14T15:07:06.116Z,10.68
2022-12-14T15:09:41.757Z,12.60
2022-12-14T15:12:31.621Z,19.52
2022-12-14T15:15:05.117Z,19.50
2022-12-14T15:17:33.423Z,9.90
2022-12-14T15:20:03.041Z,12.02
2022-12-14T15:22:41.947Z,14.15
2022-12-14T15:25:23.404Z,14.25
2022-12-14T15:27:52.930Z,12.13
2022-12-14T15:30:26.883Z,13.48
2022-12-14T15:33:10.578Z,19.50
2022-12-14T15:35:42.874Z,17.05
2022-12-14T15:38:26.553Z,13.48
2022-12-14T15:40:57.553Z,18.55
2022-12-14T15:43:27.663Z,14.93
2022-12-14T15:46:04.438Z,12.25
2022-12-14T15:48:36.531Z,18.08
2022-12-14T15:51:14.438Z,14.23
2022-12-14T15:53:51.367Z,18.63
2022-12-14T15:57:00.738Z,15.57
2022-12-14T16:00:00.039Z,13.10
2022-12-14T16:02:33.119Z,13.75
2022-12-14T16:05:03.575Z,18.17
2022-12-14T16:07:39.682Z,15.38
2022-12-14T16:10:26.354Z,14.57
2022-12-14T16:13:00.731Z,10.82
2022-12-14T16:15:30.311Z,12.02
2022-12-14T16:18:02.495Z,13.98
2022-12-14T16:20:36.235Z,11.95
2022-12-14T16:23:28.112Z,13.35
2022-12-14T16:26:21.823Z,15.75
2022-12-14T16:28:50.361Z,18.38
2022-12-14T16:31:24.597Z,27.73
2022-12-14T16:34:14.724Z,24.88
2022-12-14T16:36:56.273Z,26.27
2022-12-14T16:39:40.152Z,21.77
2022-12-14T16:42:20.277Z,21.95
2022-12-14T16:44:49.388Z,26.00
2022-12-14T16:47:48.960Z,22.17
2022-12-14T16:50:55.050Z,14.43
2022-12-14T16:53:26.603Z,24.63
2022-12-14T16:56:07.097Z,25.95
2022-12-14T16:58:36.721Z,22.45
2022-12-14T17:01:08.338Z,17.27
2022-12-14T17:03:38.404Z,14.15
2022-12-14T17:06:07.912Z,24.60
2022-12-14T17:08:36.516Z,15.85
2022-12-14T17:11:06.240Z,16.92
2022-12-14T17:13:34.869Z,24.65
2022-12-14T17:16:06.663Z,15.25
2022-12-14T17:18:39.446Z,14.20
2022-12-14T17:21:15.833Z,12.90
2022-12-14T17:23:46.279Z,14.27
2022-12-14T17:26:28.335Z,16.73
2022-12-14T17:28:57.126Z,16.70
2022-12-14T17:31:27.628Z,17.80
2022-12-14T17:33:57.888Z,11.98
2022-12-14T17:36:26.082Z,16.15
2022-12-14T17:38:54.409Z,13.50
2022-12-14T17:41:27.498Z,20.67
2022-12-14T17:43:57.459Z,16.20
2022-12-14T17:46:26.427Z,12.43
2022-12-14T17:48:55.082Z,13.27
2022-12-14T17:51:29.152Z,12.63
2022-12-14T17:53:59.930Z,14.75
2022-12-14T17:56:28.650Z,14.07
2022-12-14T17:58:57.071Z,13.32
2022-12-14T18:01:26.415Z,12.75
2022-12-14T18:03:55.025Z,19.63
2022-12-14T18:06:23.149Z,20.23
2022-12-14T18:08:51.817Z,20.90
2022-12-14T18:11:23.373Z,20.23
2022-12-14T18:13:52.323Z,23.83
2022-12-14T18:16:24.055Z,13.55
2022-12-14T18:18:54.632Z,17.38
2022-12-14T18:21:25.978Z,20.63
2022-12-14T18:23:55.242Z,20.90
2022-12-14T18:28:54.804Z,24.83
2022-12-14T18:31:27.480Z,24.17
2022-12-14T18:33:56.192Z,23.55
2022-12-14T18:36:24.797Z,18.20
2022-12-14T18:38:53.519Z,18.92
2022-12-14T18:41:24.793Z,15.43
2022-12-14T18:43:54.656Z,17.35
2022-12-14T18:46:23.869Z,18.05
2022-12-14T18:51:27.216Z,14.48
2022-12-14T18:53:58.476Z,18.58
2022-12-14T18:56:28.395Z,20.85
2022-12-14T18:58:56.794Z,18.63
2022-12-14T19:01:25.955Z,19.23
2022-12-14T19:06:44.064Z,15.38
2022-12-14T19:09:15.243Z,16.75
2022-12-14T19:11:44.948Z,17.70
2022-12-14T19:14:13.585Z,18.23
2022-12-14T19:16:42.163Z,19.70
2022-12-14T19:19:10.877Z,18.65
2022-12-14T19:21:39.210Z,17.48
2022-12-14T19:24:08.931Z,22.17
2022-12-14T19:26:39.525Z,22.77
2022-12-14T19:29:07.831Z,23.10
2022-12-14T19:31:36.181Z,22.48
2022-12-14T19:34:04.799Z,25.27
2022-12-14T19:36:33.216Z,31.45
2022-12-14T19:39:01.531Z,22.27
2022-12-14T19:41:29.896Z,20.55
2022-12-14T19:43:58.769Z,19.00
2022-12-14T19:46:27.244Z,17.75
2022-12-14T19:48:56.034Z,23.42
2022-12-14T19:51:24.649Z,17.50
2022-12-14T19:53:55.152Z,15.60
2022-12-14T19:56:23.728Z,21.98
2022-12-14T19:58:52.418Z,21.83
2022-12-14T20:01:20.797Z,20.55
2022-12-14T20:03:49.694Z,17.10
2022-12-14T20:06:18.098Z,16.98
2022-12-14T20:08:49.511Z,19.00
2022-12-14T20:11:19.867Z,19.08
2022-12-14T20:13:51.836Z,22.88
2022-12-14T20:16:24.811Z,23.48
2022-12-14T20:18:53.831Z,13.30
2022-12-14T20:21:23.273Z,18.90
2022-12-14T20:24:01.428Z,14.38
2022-12-14T20:37:26.134Z,13.18
2022-12-14T20:39:54.562Z,13.02
2022-12-14T20:42:22.789Z,18.35
2022-12-14T20:44:51.109Z,20.50
2022-12-14T20:47:19.237Z,22.08
2022-12-14T20:49:47.272Z,14.90
2022-12-14T20:52:15.403Z,21.08
2022-12-14T20:54:43.593Z,20.10
2022-12-14T20:57:11.496Z,30.52
2022-12-14T20:59:39.512Z,15.68
2022-12-14T21:02:15.436Z,17.77
2022-12-14T21:04:43.645Z,23.52
2022-12-14T21:07:11.610Z,20.85
2022-12-14T21:09:40.108Z,17.70
2022-12-14T21:12:21.773Z,16.70
2022-12-14T21:17:24.955Z,20.08
2022-12-14T21:19:53.776Z,20.48
2022-12-14T21:22:24.327Z,20.10
2022-12-14T21:25:02.984Z,18.63
2022-12-14T21:27:33.928Z,20.00
2022-12-14T21:32:30.802Z,24.05
2022-12-14T21:34:58.602Z,21.25
2022-12-14T21:37:26.557Z,18.20
2022-12-14T21:39:55.709Z,25.75
2022-12-14T21:44:53.365Z,16.75
2022-12-14T21:47:24.487Z,16.08
2022-12-14T21:49:52.614Z,15.05
2022-12-14T21:52:23.994Z,20.95
2022-12-14T21:54:51.976Z,19.88
2022-12-14T21:57:50.590Z,22.83
2022-12-14T22:00:19.612Z,19.05
2022-12-14T22:02:47.746Z,19.88
2022-12-14T22:05:18.996Z,18.95
2022-12-14T22:07:47.277Z,21.98
2022-12-14T22:10:18.701Z,19.38
2022-12-14T22:12:49.485Z,22.38
2022-12-14T22:15:17.512Z,19.65
2022-12-14T22:17:45.388Z,17.70
2022-12-14T22:20:14.834Z,23.90
2022-12-14T22:22:42.771Z,24.02
2022-12-14T22:25:10.678Z,18.65
2022-12-14T22:27:38.753Z,20.20
2022-12-14T22:30:08.781Z,20.35
2022-12-14T22:32:36.762Z,18.15
2022-12-14T22:35:04.989Z,23.00
2022-12-14T22:37:32.898Z,20.33
2022-12-14T22:40:19.491Z,21.02
2022-12-14T22:42:47.477Z,19.33
2022-12-14T22:45:15.454Z,19.02
2022-12-14T22:47:43.516Z,21.52
2022-12-14T22:50:12.078Z,19.38
2022-12-14T22:52:40.584Z,13.77
2022-12-14T22:55:08.740Z,22.77
2022-12-14T22:57:41.870Z,18.15
2022-12-14T23:00:15.987Z,19.45
2022-12-14T23:02:48.297Z,19.00
2022-12-14T23:05:17.927Z,34.88
2022-12-14T23:07:45.998Z,20.33
2022-12-14T23:10:32.577Z,21.52
2022-12-14T23:13:19.004Z,16.75
2022-12-14T23:16:05.304Z,22.08
2022-12-14T23:18:51.936Z,19.17
2022-12-14T23:21:39.412Z,18.00
2022-12-14T23:24:25.996Z,30.05
2022-12-14T23:27:12.888Z,26.23
2022-12-14T23:29:59.681Z,20.48
2022-12-14T23:32:45.974Z,23.17
2022-12-14T23:35:32.811Z,21.90
2022-12-14T23:38:23.604Z,16.33
2022-12-14T23:41:10.882Z,23.35
2022-12-14T23:43:57.414Z,20.67
2022-12-14T23:46:43.930Z,18.92
2022-12-14T23:49:30.539Z,18.63
2022-12-14T23:52:17.188Z,16.98
2022-12-14T23:55:03.543Z,14.88
2022-12-14T23:57:49.752Z,16.52
